createdAt,value
2022-10-17T00:03:57.308Z,16.78
2022-10-17T00:09:09.567Z,16.76
2022-10-17T00:14:21.890Z,16.78
2022-10-17T00:19:34.315Z,16.77
2022-10-17T00:24:46.603Z,16.77
2022-10-17T00:29:58.914Z,16.78
2022-10-17T00:35:11.595Z,16.81
2022-10-17T00:40:24.143Z,16.78
2022-10-17T00:45:36.345Z,16.69
2022-10-17T00:50:48.594Z,16.67
2022-10-17T00:56:01.112Z,16.74
2022-10-17T01:01:13.610Z,16.8
2022-10-17T01:06:25.739Z,16.85
2022-10-17T01:11:38.191Z,16.74
2022-10-17T01:16:50.582Z,16.58
2022-10-17T01:22:02.996Z,16.46
2022-10-17T01:27:15.359Z,16.38
2022-10-17T01:32:27.809Z,16.29
2022-10-17T01:37:40.087Z,16.21
2022-10-17T01:42:52.431Z,16.17
2022-10-17T01:48:04.695Z,16.13
2022-10-17T01:53:16.958Z,16.1
2022-10-17T01:58:29.211Z,16.03
2022-10-17T02:03:41.505Z,16
2022-10-17T02:08:53.878Z,15.94
2022-10-17T02:14:06.300Z,15.85
2022-10-17T02:19:18.457Z,15.79
2022-10-17T02:24:30.830Z,15.74
2022-10-17T02:29:43.227Z,15.68
2022-10-17T02:34:55.421Z,15.67
2022-10-17T02:40:07.776Z,15.71
2022-10-17T02:45:20.125Z,15.72
2022-10-17T02:50:32.604Z,15.7
2022-10-17T02:55:44.925Z,15.69
2022-10-17T03:00:57.384Z,15.66
2022-10-17T03:06:09.804Z,15.68
2022-10-17T03:11:21.884Z,15.68
2022-10-17T03:16:34.358Z,15.65
2022-10-17T03:21:46.789Z,15.69
2022-10-17T03:26:58.964Z,15.7
2022-10-17T03:32:11.282Z,15.71
2022-10-17T03:37:23.844Z,15.75
2022-10-17T03:42:36.163Z,15.76
2022-10-17T03:47:48.279Z,15.71
2022-10-17T03:53:00.705Z,15.7
2022-10-17T03:58:13.140Z,15.72
2022-10-17T04:03:25.564Z,15.7
2022-10-17T04:08:37.966Z,15.68
2022-10-17T04:13:50.067Z,15.69
2022-10-17T04:19:03.068Z,15.65
2022-10-17T04:24:15.257Z,15.62
2022-10-17T04:29:27.766Z,15.6
2022-10-17T04:34:40.328Z,15.57
2022-10-17T04:39:52.619Z,15.56
2022-10-17T04:45:04.795Z,15.55
2022-10-17T04:50:17.214Z,15.54
2022-10-17T04:55:29.995Z,15.52
2022-10-17T05:00:42.623Z,15.52
2022-10-17T05:05:54.995Z,15.52
2022-10-17T05:11:07.394Z,15.49
2022-10-17T05:16:19.807Z,15.5
2022-10-17T05:26:44.563Z,15.43
2022-10-17T05:31:57.094Z,15.42
2022-10-17T05:37:09.188Z,15.39
2022-10-17T05:42:21.415Z,15.34
2022-10-17T05:47:33.929Z,15.29
2022-10-17T05:52:46.487Z,15.3
2022-10-17T05:57:58.486Z,15.31
2022-10-17T06:03:10.886Z,15.32
2022-10-17T06:08:23.378Z,15.39
2022-10-17T06:13:35.692Z,15.51
2022-10-17T06:24:00.745Z,15.81
2022-10-17T06:29:13.039Z,15.89
2022-10-17T06:34:25.358Z,16
2022-10-17T06:39:37.916Z,16.11
2022-10-17T06:44:50.216Z,16.2
2022-10-17T06:50:02.572Z,16.29
2022-10-17T06:55:16.846Z,16.37
2022-10-17T07:00:27.515Z,16.43
2022-10-17T07:05:39.699Z,16.48
2022-10-17T07:10:52.079Z,16.55
2022-10-17T07:16:04.526Z,16.58
2022-10-17T07:21:17.191Z,16.67
2022-10-17T07:26:29.550Z,16.75
2022-10-17T07:31:41.950Z,16.8
2022-10-17T07:36:54.293Z,16.85
2022-10-17T07:42:06.629Z,16.94
2022-10-17T07:47:19.029Z,17.03
2022-10-17T07:52:31.625Z,17.12
2022-10-17T07:57:44.015Z,17.25
2022-10-17T08:02:56.302Z,17.36
2022-10-17T08:08:08.628Z,17.49
2022-10-17T08:13:21.302Z,17.62
2022-10-17T08:18:33.692Z,17.78
2022-10-17T08:23:45.883Z,17.91
2022-10-17T08:28:58.445Z,18.05
2022-10-17T08:34:10.665Z,18.16
2022-10-17T08:39:23.166Z,18.31
2022-10-17T08:44:35.533Z,18.47
2022-10-17T08:49:48.014Z,18.61
2022-10-17T08:55:00.449Z,18.76
2022-10-17T09:00:12.810Z,18.94
2022-10-17T09:05:26.301Z,19.09
2022-10-17T09:10:37.674Z,19.29
2022-10-17T09:15:50.083Z,19.46
2022-10-17T09:21:02.353Z,19.63
2022-10-17T09:26:14.813Z,19.81
2022-10-17T09:31:27.382Z,20.02
2022-10-17T09:36:39.700Z,20.24
2022-10-17T09:41:52.070Z,20.44
2022-10-17T09:47:04.557Z,20.66
2022-10-17T09:57:47.270Z,21.29
2022-10-17T10:02:59.519Z,21.46
2022-10-17T10:08:11.943Z,21.71
2022-10-17T10:13:24.336Z,21.88
2022-10-17T10:18:36.599Z,22
2022-10-17T10:23:49.003Z,22.22
2022-10-17T10:35:29.166Z,22.76
2022-10-17T10:45:53.995Z,23.18
2022-10-17T10:51:06.269Z,23.32
2022-10-17T10:56:18.715Z,23.44
2022-10-17T11:01:30.935Z,23.71
2022-10-17T11:06:43.441Z,23.99
2022-10-17T11:11:55.886Z,24.29
2022-10-17T11:17:08.370Z,24.46
2022-10-17T11:22:22.015Z,24.57
2022-10-17T11:27:33.611Z,24.75
2022-10-17T11:32:46.003Z,24.87
2022-10-17T11:37:58.319Z,24.94
2022-10-17T11:43:10.731Z,25.03
2022-10-17T11:48:23.281Z,25.23
2022-10-17T11:53:35.529Z,25.33
2022-10-17T11:58:47.902Z,25.5
2022-10-17T12:04:00.509Z,25.8
2022-10-17T12:09:12.702Z,25.91
2022-10-17T12:14:25.181Z,26.17
2022-10-17T12:19:37.901Z,26.45
2022-10-17T12:24:50.389Z,26.66
2022-10-17T12:30:02.683Z,26.94
2022-10-17T12:35:15.112Z,27.23
2022-10-17T12:40:27.418Z,27.46
2022-10-17T12:45:39.830Z,27.66
2022-10-17T12:50:52.219Z,27.69
2022-10-17T12:56:04.442Z,27.63
2022-10-17T13:01:24.045Z,27.58
2022-10-17T13:06:29.552Z,27.37
2022-10-17T13:11:41.854Z,27.27
2022-10-17T13:16:54.213Z,27.43
2022-10-17T13:22:07.332Z,27.43
2022-10-17T13:27:19.113Z,27.35
2022-10-17T13:37:44.215Z,27.79
2022-10-17T13:42:56.459Z,27.6
2022-10-17T13:48:08.759Z,27.82
2022-10-17T13:53:21.190Z,27.93
2022-10-17T13:58:33.566Z,27.99
2022-10-17T14:03:48.446Z,28.15
2022-10-17T14:08:58.135Z,28.43
2022-10-17T14:14:10.648Z,28.65
2022-10-17T14:19:22.908Z,29.01
2022-10-17T14:24:35.711Z,29.2
2022-10-17T14:29:47.879Z,29.27
2022-10-17T14:35:16.510Z,29.35
2022-10-17T14:40:12.349Z,29.37
2022-10-17T14:45:24.938Z,29.24
2022-10-17T14:50:36.964Z,28.63
2022-10-17T14:55:48.959Z,28.01
2022-10-17T15:01:01.240Z,27.43
2022-10-17T15:06:13.795Z,27.15
2022-10-17T15:11:26.087Z,27
2022-10-17T15:16:38.447Z,26.94
2022-10-17T15:21:50.885Z,27.05
2022-10-17T15:27:03.862Z,27.18
2022-10-17T15:32:16.159Z,27.03
2022-10-17T15:37:29.071Z,26.78
2022-10-17T15:42:41.466Z,26.5
2022-10-17T15:47:53.775Z,26.18
2022-10-17T15:53:05.678Z,25.89
2022-10-17T15:58:17.866Z,25.7
2022-10-17T16:03:30.116Z,25.51
2022-10-17T16:08:42.313Z,25.34
2022-10-17T16:13:54.729Z,25.18
2022-10-17T16:19:07.141Z,25.05
2022-10-17T16:24:19.708Z,24.93
2022-10-17T16:29:32.012Z,24.82
2022-10-17T16:34:44.225Z,24.72
2022-10-17T16:39:56.684Z,24.65
2022-10-17T16:45:08.981Z,24.58
2022-10-17T16:50:21.356Z,24.5
2022-10-17T16:55:33.724Z,24.42
2022-10-17T17:00:46.242Z,24.35
2022-10-17T17:05:58.480Z,24.25
2022-10-17T17:11:11.146Z,24.16
2022-10-17T17:16:23.725Z,24.09
2022-10-17T17:21:35.971Z,24
2022-10-17T17:26:48.280Z,23.95
2022-10-17T17:32:00.598Z,23.88
2022-10-17T17:37:13.441Z,23.79
2022-10-17T17:42:25.650Z,23.59
2022-10-17T17:47:38.142Z,23.34
2022-10-17T17:52:50.703Z,23.14
2022-10-17T17:58:02.924Z,23.06
2022-10-17T18:03:15.264Z,22.99
2022-10-17T18:08:27.882Z,22.88
2022-10-17T18:13:40.247Z,22.67
2022-10-17T18:18:52.349Z,22.44
2022-10-17T18:24:04.555Z,22.29
2022-10-17T18:29:16.791Z,22.19
2022-10-17T18:34:29.298Z,22.04
2022-10-17T18:39:41.669Z,22.02
2022-10-17T18:44:54.040Z,22.11
2022-10-17T18:50:06.334Z,22.19
2022-10-17T18:55:19.069Z,22.27
2022-10-17T19:00:31.847Z,22.3
2022-10-17T19:05:44.372Z,22.32
2022-10-17T19:10:56.607Z,22.29
2022-10-17T19:16:08.923Z,22.24
2022-10-17T19:21:21.765Z,22.25
2022-10-17T19:26:33.489Z,22.24
2022-10-17T19:31:45.925Z,22.23
2022-10-17T19:36:58.312Z,22.07
2022-10-17T19:55:05.836Z,21.6
2022-10-17T20:00:18.135Z,21.48
2022-10-17T20:05:30.372Z,21.47
2022-10-17T20:10:42.789Z,21.5
2022-10-17T20:15:55.064Z,21.5
2022-10-17T20:21:07.285Z,21.49
2022-10-17T20:26:37.429Z,21.53
2022-10-17T20:31:31.987Z,21.52
2022-10-17T20:36:44.396Z,21.5
2022-10-17T20:41:56.531Z,21.42
2022-10-17T20:47:16.086Z,21.11
2022-10-17T20:52:20.748Z,20.72
2022-10-17T20:57:32.997Z,20.51
2022-10-17T21:02:45.196Z,20.29
2022-10-17T21:07:57.730Z,20.07
2022-10-17T21:13:09.870Z,19.95
2022-10-17T21:18:22.058Z,19.88
2022-10-17T21:23:34.380Z,19.82
2022-10-17T21:28:47.194Z,19.78
2022-10-17T21:33:59.281Z,19.74
2022-10-17T21:39:11.522Z,19.74
2022-10-17T21:44:23.712Z,19.86
2022-10-17T21:49:36.087Z,20.01
2022-10-17T21:54:48.631Z,19.92
2022-10-17T22:00:00.988Z,19.66
2022-10-17T22:05:13.189Z,19.37
2022-10-17T22:10:25.369Z,19.2
2022-10-17T22:15:37.888Z,19.14
2022-10-17T22:20:50.161Z,19.01
2022-10-17T22:26:02.496Z,19.05
2022-10-17T22:31:15.573Z,19.22
2022-10-17T22:36:27.558Z,19.39
2022-10-17T22:41:39.891Z,19.4
2022-10-17T22:46:52.288Z,19.37
2022-10-17T22:52:04.552Z,19.33
2022-10-17T22:57:17.029Z,19.31
2022-10-17T23:02:29.940Z,19.31
2022-10-17T23:07:41.767Z,19.34
2022-10-17T23:12:54.336Z,19.39
2022-10-17T23:18:06.719Z,19.48
2022-10-17T23:23:19.062Z,19.64
2022-10-17T23:28:31.451Z,19.74
2022-10-17T23:33:43.824Z,19.79
2022-10-17T23:38:57.785Z,19.76
2022-10-17T23:44:08.640Z,19.79
2022-10-17T23:49:20.901Z,19.82
2022-10-17T23:54:33.133Z,19.85
2022-10-17T23:59:45.523Z,19.83
